sensor_id;sensor_type;location;lat;lon;timestamp;temperature;humidity
56046;DHT22;41913;51.030;3.706;2022-09-29T00:01:48;10.80;99.90
56046;DHT22;41913;51.030;3.706;2022-09-29T00:04:14;10.80;99.90
56046;DHT22;41913;51.030;3.706;2022-09-29T00:06:40;10.70;99.90
56046;DHT22;41913;51.030;3.706;2022-09-29T00:09:08;10.70;99.90
56046;DHT22;41913;51.030;3.706;2022-09-29T00:11:38;10.70;99.90
56046;DHT22;41913;51.030;3.706;2022-09-29T00:14:07;10.60;99.90
56046;DHT22;41913;51.030;3.706;2022-09-29T00:16:33;10.50;99.90
56046;DHT22;41913;51.030;3.706;2022-09-29T00:19:05;10.40;99.90
56046;DHT22;41913;51.030;3.706;2022-09-29T00:21:34;10.40;99.90
56046;DHT22;41913;51.030;3.706;2022-09-29T00:24:02;10.30;99.90
56046;DHT22;41913;51.030;3.706;2022-09-29T00:26:31;10.30;99.90
56046;DHT22;41913;51.030;3.706;2022-09-29T00:28:57;10.20;99.90
56046;DHT22;41913;51.030;3.706;2022-09-29T00:31:25;10.10;99.90
56046;DHT22;41913;51.030;3.706;2022-09-29T00:33:54;10.10;99.90
56046;DHT22;41913;51.030;3.706;2022-09-29T00:36:22;10.10;99.90
56046;DHT22;41913;51.030;3.706;2022-09-29T00:38:49;10.00;99.90
56046;DHT22;41913;51.030;3.706;2022-09-29T00:41:26;10.00;99.90
56046;DHT22;41913;51.030;3.706;2022-09-29T00:46:59;9.90;99.90
56046;DHT22;41913;51.030;3.706;2022-09-29T00:49:35;9.80;99.90
56046;DHT22;41913;51.030;3.706;2022-09-29T00:54:52;9.90;99.90
56046;DHT22;41913;51.030;3.706;2022-09-29T00:57:22;9.90;99.90
56046;DHT22;41913;51.030;3.706;2022-09-29T01:00:06;9.80;99.90
56046;DHT22;41913;51.030;3.706;2022-09-29T01:02:34;9.80;99.90
56046;DHT22;41913;51.030;3.706;2022-09-29T01:07:32;9.90;99.90
56046;DHT22;41913;51.030;3.706;2022-09-29T01:10:26;9.90;99.90
56046;DHT22;41913;51.030;3.706;2022-09-29T01:12:54;10.00;99.90
56046;DHT22;41913;51.030;3.706;2022-09-29T01:24:07;10.10;99.90
56046;DHT22;41913;51.030;3.706;2022-09-29T01:26:44;10.00;99.90
56046;DHT22;41913;51.030;3.706;2022-09-29T01:32:13;10.10;99.90
56046;DHT22;41913;51.030;3.706;2022-09-29T01:35:28;10.10;99.90
56046;DHT22;41913;51.030;3.706;2022-09-29T01:40:17;10.10;99.90
56046;DHT22;41913;51.030;3.706;2022-09-29T01:42:50;10.20;99.90
56046;DHT22;41913;51.030;3.706;2022-09-29T01:48:28;10.10;99.90
56046;DHT22;41913;51.030;3.706;2022-09-29T01:51:01;10.00;99.90
56046;DHT22;41913;51.030;3.706;2022-09-29T01:53:38;10.00;99.90
56046;DHT22;41913;51.030;3.706;2022-09-29T01:56:19;10.00;99.90
56046;DHT22;41913;51.030;3.706;2022-09-29T01:58:51;10.00;99.90
56046;DHT22;41913;51.030;3.706;2022-09-29T02:01:25;10.00;99.90
56046;DHT22;41913;51.030;3.706;2022-09-29T02:04:16;9.90;99.90
56046;DHT22;41913;51.030;3.706;2022-09-29T02:06:48;9.80;99.90
56046;DHT22;41913;51.030;3.706;2022-09-29T02:09:27;9.90;99.90
56046;DHT22;41913;51.030;3.706;2022-09-29T02:11:54;9.90;99.90
56046;DHT22;41913;51.030;3.706;2022-09-29T02:14:40;9.90;99.90
56046;DHT22;41913;51.030;3.706;2022-09-29T02:20:13;9.90;99.90
56046;DHT22;41913;51.030;3.706;2022-09-29T02:22:51;9.90;99.90
56046;DHT22;41913;51.030;3.706;2022-09-29T02:25:17;10.00;99.90
56046;DHT22;41913;51.030;3.706;2022-09-29T02:27:49;10.00;99.90
56046;DHT22;41913;51.030;3.706;2022-09-29T02:30:24;10.10;99.90
56046;DHT22;41913;51.030;3.706;2022-09-29T02:32:49;10.00;99.90
56046;DHT22;41913;51.030;3.706;2022-09-29T02:35:16;10.00;99.90
56046;DHT22;41913;51.030;3.706;2022-09-29T02:38:03;9.90;99.90
56046;DHT22;41913;51.030;3.706;2022-09-29T03:02:09;9.70;99.90
56046;DHT22;41913;51.030;3.706;2022-09-29T03:04:56;9.80;99.90
56046;DHT22;41913;51.030;3.706;2022-09-29T03:07:38;9.70;99.90
56046;DHT22;41913;51.030;3.706;2022-09-29T03:10:10;9.70;99.90
56046;DHT22;41913;51.030;3.706;2022-09-29T03:12:39;9.50;99.90
56046;DHT22;41913;51.030;3.706;2022-09-29T03:15:08;9.40;99.90
56046;DHT22;41913;51.030;3.706;2022-09-29T03:17:41;9.30;99.90
56046;DHT22;41913;51.030;3.706;2022-09-29T03:20:06;9.20;99.90
56046;DHT22;41913;51.030;3.706;2022-09-29T03:22:35;9.10;99.90
56046;DHT22;41913;51.030;3.706;2022-09-29T03:25:02;9.00;99.90
56046;DHT22;41913;51.030;3.706;2022-09-29T03:27:31;9.00;99.90
56046;DHT22;41913;51.030;3.706;2022-09-29T03:30:02;8.90;99.90
56046;DHT22;41913;51.030;3.706;2022-09-29T03:32:31;8.90;99.90
56046;DHT22;41913;51.030;3.706;2022-09-29T03:34:59;8.90;99.90
56046;DHT22;41913;51.030;3.706;2022-09-29T03:37:25;8.90;99.90
56046;DHT22;41913;51.030;3.706;2022-09-29T03:40:07;8.90;99.90
56046;DHT22;41913;51.030;3.706;2022-09-29T03:42:34;8.90;99.90
56046;DHT22;41913;51.030;3.706;2022-09-29T03:45:04;8.80;99.90
56046;DHT22;41913;51.030;3.706;2022-09-29T03:47:34;8.80;99.90
56046;DHT22;41913;51.030;3.706;2022-09-29T03:50:00;8.80;99.90
56046;DHT22;41913;51.030;3.706;2022-09-29T03:52:27;8.90;99.90
56046;DHT22;41913;51.030;3.706;2022-09-29T03:54:55;8.90;99.90
56046;DHT22;41913;51.030;3.706;2022-09-29T03:57:26;9.00;99.90
56046;DHT22;41913;51.030;3.706;2022-09-29T03:59:52;9.00;99.90
56046;DHT22;41913;51.030;3.706;2022-09-29T04:02:18;9.20;99.90
56046;DHT22;41913;51.030;3.706;2022-09-29T04:04:46;9.20;99.90
56046;DHT22;41913;51.030;3.706;2022-09-29T04:07:16;9.30;99.90
56046;DHT22;41913;51.030;3.706;2022-09-29T04:09:44;9.30;99.90
56046;DHT22;41913;51.030;3.706;2022-09-29T04:12:12;9.30;99.90
56046;DHT22;41913;51.030;3.706;2022-09-29T04:17:14;9.30;99.90
56046;DHT22;41913;51.030;3.706;2022-09-29T04:19:40;9.40;99.90
56046;DHT22;41913;51.030;3.706;2022-09-29T04:24:45;9.30;99.90
56046;DHT22;41913;51.030;3.706;2022-09-29T04:27:12;9.30;99.90
56046;DHT22;41913;51.030;3.706;2022-09-29T04:29:40;9.40;99.90
56046;DHT22;41913;51.030;3.706;2022-09-29T04:32:07;9.40;99.90
56046;DHT22;41913;51.030;3.706;2022-09-29T04:34:33;9.50;99.90
56046;DHT22;41913;51.030;3.706;2022-09-29T04:36:59;9.50;99.90
56046;DHT22;41913;51.030;3.706;2022-09-29T04:39:26;9.60;99.90
56046;DHT22;41913;51.030;3.706;2022-09-29T04:41:55;9.60;99.90
56046;DHT22;41913;51.030;3.706;2022-09-29T04:44:23;9.60;99.90
56046;DHT22;41913;51.030;3.706;2022-09-29T04:46:53;9.60;99.90
56046;DHT22;41913;51.030;3.706;2022-09-29T04:49:29;9.60;99.90
56046;DHT22;41913;51.030;3.706;2022-09-29T04:52:02;9.50;99.90
56046;DHT22;41913;51.030;3.706;2022-09-29T04:54:33;9.50;99.90
56046;DHT22;41913;51.030;3.706;2022-09-29T04:56:59;9.50;99.90
56046;DHT22;41913;51.030;3.706;2022-09-29T04:59:35;9.50;99.90
56046;DHT22;41913;51.030;3.706;2022-09-29T05:02:04;9.40;99.90
56046;DHT22;41913;51.030;3.706;2022-09-29T05:04:33;9.40;99.90
56046;DHT22;41913;51.030;3.706;2022-09-29T05:07:00;9.40;99.90
56046;DHT22;41913;51.030;3.706;2022-09-29T05:09:35;9.30;99.90
56046;DHT22;41913;51.030;3.706;2022-09-29T05:12:10;9.30;99.90
56046;DHT22;41913;51.030;3.706;2022-09-29T05:14:39;9.30;99.90
56046;DHT22;41913;51.030;3.706;2022-09-29T05:17:04;9.30;99.90
56046;DHT22;41913;51.030;3.706;2022-09-29T05:19:33;9.30;99.90
56046;DHT22;41913;51.030;3.706;2022-09-29T05:24:35;9.20;99.90
56046;DHT22;41913;51.030;3.706;2022-09-29T05:27:01;9.20;99.90
56046;DHT22;41913;51.030;3.706;2022-09-29T05:31:56;9.30;99.90
56046;DHT22;41913;51.030;3.706;2022-09-29T05:34:22;9.10;99.90
56046;DHT22;41913;51.030;3.706;2022-09-29T05:36:58;9.10;99.90
56046;DHT22;41913;51.030;3.706;2022-09-29T05:39:24;9.10;99.90
56046;DHT22;41913;51.030;3.706;2022-09-29T05:41:50;9.10;99.90
56046;DHT22;41913;51.030;3.706;2022-09-29T05:44:16;9.10;99.90
56046;DHT22;41913;51.030;3.706;2022-09-29T05:46:44;9.00;99.90
56046;DHT22;41913;51.030;3.706;2022-09-29T05:49:14;9.00;99.90
56046;DHT22;41913;51.030;3.706;2022-09-29T05:51:39;9.00;99.90
56046;DHT22;41913;51.030;3.706;2022-09-29T05:54:05;9.10;99.90
56046;DHT22;41913;51.030;3.706;2022-09-29T05:56:30;9.00;99.90
56046;DHT22;41913;51.030;3.706;2022-09-29T05:58:56;9.00;99.90
56046;DHT22;41913;51.030;3.706;2022-09-29T06:01:22;9.00;99.90
56046;DHT22;41913;51.030;3.706;2022-09-29T06:03:48;9.10;99.90
56046;DHT22;41913;51.030;3.706;2022-09-29T06:06:17;9.10;99.90
56046;DHT22;41913;51.030;3.706;2022-09-29T06:08:42;9.10;99.90
56046;DHT22;41913;51.030;3.706;2022-09-29T06:11:12;9.10;99.90
56046;DHT22;41913;51.030;3.706;2022-09-29T06:13:40;9.10;99.90
56046;DHT22;41913;51.030;3.706;2022-09-29T06:16:06;9.20;99.90
56046;DHT22;41913;51.030;3.706;2022-09-29T06:18:33;9.20;99.90
56046;DHT22;41913;51.030;3.706;2022-09-29T06:20:59;9.20;99.90
56046;DHT22;41913;51.030;3.706;2022-09-29T06:23:25;9.30;99.90
56046;DHT22;41913;51.030;3.706;2022-09-29T06:25:55;9.40;99.90
56046;DHT22;41913;51.030;3.706;2022-09-29T06:28:21;9.50;99.90
56046;DHT22;41913;51.030;3.706;2022-09-29T06:30:47;9.60;99.90
56046;DHT22;41913;51.030;3.706;2022-09-29T06:33:13;9.70;99.90
56046;DHT22;41913;51.030;3.706;2022-09-29T06:35:38;9.70;99.90
56046;DHT22;41913;51.030;3.706;2022-09-29T06:38:22;9.70;99.90
56046;DHT22;41913;51.030;3.706;2022-09-29T06:40:48;9.70;99.90
56046;DHT22;41913;51.030;3.706;2022-09-29T06:43:14;9.90;99.90
56046;DHT22;41913;51.030;3.706;2022-09-29T06:45:40;10.00;99.90
56046;DHT22;41913;51.030;3.706;2022-09-29T06:48:05;10.00;99.90
56046;DHT22;41913;51.030;3.706;2022-09-29T06:50:35;10.00;99.90
56046;DHT22;41913;51.030;3.706;2022-09-29T06:53:01;10.20;99.90
56046;DHT22;41913;51.030;3.706;2022-09-29T06:55:28;10.30;99.90
56046;DHT22;41913;51.030;3.706;2022-09-29T06:57:53;10.30;99.90
56046;DHT22;41913;51.030;3.706;2022-09-29T07:00:19;10.40;99.90
56046;DHT22;41913;51.030;3.706;2022-09-29T07:02:45;10.50;99.90
56046;DHT22;41913;51.030;3.706;2022-09-29T07:05:11;10.50;99.90
56046;DHT22;41913;51.030;3.706;2022-09-29T07:07:37;10.50;99.90
56046;DHT22;41913;51.030;3.706;2022-09-29T07:10:03;10.50;99.90
56046;DHT22;41913;51.030;3.706;2022-09-29T07:12:29;10.70;99.90
56046;DHT22;41913;51.030;3.706;2022-09-29T07:14:55;10.70;99.90
56046;DHT22;41913;51.030;3.706;2022-09-29T07:17:21;10.80;99.90
56046;DHT22;41913;51.030;3.706;2022-09-29T07:19:46;10.90;99.90
56046;DHT22;41913;51.030;3.706;2022-09-29T07:22:12;11.00;99.90
56046;DHT22;41913;51.030;3.706;2022-09-29T07:24:37;11.10;99.90
56046;DHT22;41913;51.030;3.706;2022-09-29T07:27:03;11.20;99.90
56046;DHT22;41913;51.030;3.706;2022-09-29T07:29:28;11.30;99.90
56046;DHT22;41913;51.030;3.706;2022-09-29T07:31:57;11.40;99.90
56046;DHT22;41913;51.030;3.706;2022-09-29T07:34:23;11.50;99.90
56046;DHT22;41913;51.030;3.706;2022-09-29T07:36:49;11.50;99.90
56046;DHT22;41913;51.030;3.706;2022-09-29T07:39:15;11.50;99.90
56046;DHT22;41913;51.030;3.706;2022-09-29T07:41:41;11.50;99.90
56046;DHT22;41913;51.030;3.706;2022-09-29T07:44:07;11.50;99.90
56046;DHT22;41913;51.030;3.706;2022-09-29T07:46:32;11.60;99.90
56046;DHT22;41913;51.030;3.706;2022-09-29T07:48:58;11.70;99.90
56046;DHT22;41913;51.030;3.706;2022-09-29T07:51:25;11.80;99.90
56046;DHT22;41913;51.030;3.706;2022-09-29T07:53:50;11.90;99.90
56046;DHT22;41913;51.030;3.706;2022-09-29T07:56:20;12.00;99.90
56046;DHT22;41913;51.030;3.706;2022-09-29T07:58:47;12.60;99.90
56046;DHT22;41913;51.030;3.706;2022-09-29T08:01:14;14.10;99.90
56046;DHT22;41913;51.030;3.706;2022-09-29T08:03:41;15.70;99.90
56046;DHT22;41913;51.030;3.706;2022-09-29T08:06:07;17.40;99.90
56046;DHT22;41913;51.030;3.706;2022-09-29T08:08:36;19.00;99.90
56046;DHT22;41913;51.030;3.706;2022-09-29T08:11:03;20.10;99.90
56046;DHT22;41913;51.030;3.706;2022-09-29T08:13:29;20.90;98.90
56046;DHT22;41913;51.030;3.706;2022-09-29T08:15:57;21.70;97.40
56046;DHT22;41913;51.030;3.706;2022-09-29T08:18:23;22.30;96.30
56046;DHT22;41913;51.030;3.706;2022-09-29T08:20:49;23.20;95.10
56046;DHT22;41913;51.030;3.706;2022-09-29T08:23:15;24.10;93.70
56046;DHT22;41913;51.030;3.706;2022-09-29T08:25:41;25.00;92.20
56046;DHT22;41913;51.030;3.706;2022-09-29T08:28:07;26.00;90.60
56046;DHT22;41913;51.030;3.706;2022-09-29T08:30:35;26.60;89.30
56046;DHT22;41913;51.030;3.706;2022-09-29T08:33:01;27.00;87.50
56046;DHT22;41913;51.030;3.706;2022-09-29T08:35:28;27.20;83.70
56046;DHT22;41913;51.030;3.706;2022-09-29T08:37:53;27.20;84.60
56046;DHT22;41913;51.030;3.706;2022-09-29T08:40:22;27.30;83.20
56046;DHT22;41913;51.030;3.706;2022-09-29T08:42:53;27.70;82.10
56046;DHT22;41913;51.030;3.706;2022-09-29T08:45:28;28.10;80.60
56046;DHT22;41913;51.030;3.706;2022-09-29T08:47:59;28.40;78.40
56046;DHT22;41913;51.030;3.706;2022-09-29T08:50:35;28.80;78.70
56046;DHT22;41913;51.030;3.706;2022-09-29T08:53:06;29.20;76.70
56046;DHT22;41913;51.030;3.706;2022-09-29T08:55:35;29.50;75.70
56046;DHT22;41913;51.030;3.706;2022-09-29T08:58:03;29.60;74.10
56046;DHT22;41913;51.030;3.706;2022-09-29T09:05:54;29.80;71.90
56046;DHT22;41913;51.030;3.706;2022-09-29T09:11:03;30.30;71.60
56046;DHT22;41913;51.030;3.706;2022-09-29T09:21:07;31.20;68.60
56046;DHT22;41913;51.030;3.706;2022-09-29T09:23:38;31.30;67.10
56046;DHT22;41913;51.030;3.706;2022-09-29T09:26:06;31.50;67.00
56046;DHT22;41913;51.030;3.706;2022-09-29T09:28:37;31.50;65.30
56046;DHT22;41913;51.030;3.706;2022-09-29T09:31:06;31.50;65.90
56046;DHT22;41913;51.030;3.706;2022-09-29T09:33:38;31.20;65.50
56046;DHT22;41913;51.030;3.706;2022-09-29T09:36:14;31.20;65.40
56046;DHT22;41913;51.030;3.706;2022-09-29T09:41:12;31.30;64.80
56046;DHT22;41913;51.030;3.706;2022-09-29T09:43:40;31.60;63.90
56046;DHT22;41913;51.030;3.706;2022-09-29T09:46:23;32.10;63.70
56046;DHT22;41913;51.030;3.706;2022-09-29T09:51:33;32.90;62.10
56046;DHT22;41913;51.030;3.706;2022-09-29T09:54:03;33.10;61.30
56046;DHT22;41913;51.030;3.706;2022-09-29T09:59:15;33.40;59.70
56046;DHT22;41913;51.030;3.706;2022-09-29T10:01:43;32.30;60.30
56046;DHT22;41913;51.030;3.706;2022-09-29T10:04:10;32.80;59.80
56046;DHT22;41913;51.030;3.706;2022-09-29T10:06:36;31.80;61.30
56046;DHT22;41913;51.030;3.706;2022-09-29T10:09:02;31.90;61.40
56046;DHT22;41913;51.030;3.706;2022-09-29T10:11:29;31.90;61.90
56046;DHT22;41913;51.030;3.706;2022-09-29T10:14:41;32.30;61.00
56046;DHT22;41913;51.030;3.706;2022-09-29T10:19:07;31.90;60.60
56046;DHT22;41913;51.030;3.706;2022-09-29T10:21:41;32.10;60.80
56046;DHT22;41913;51.030;3.706;2022-09-29T10:24:49;32.20;59.90
56046;DHT22;41913;51.030;3.706;2022-09-29T10:26:56;32.30;59.90
56046;DHT22;41913;51.030;3.706;2022-09-29T10:34:43;31.90;59.80
56046;DHT22;41913;51.030;3.706;2022-09-29T10:39:48;32.40;59.20
56046;DHT22;41913;51.030;3.706;2022-09-29T10:45:00;32.60;58.20
56046;DHT22;41913;51.030;3.706;2022-09-29T10:47:26;31.10;58.90
56046;DHT22;41913;51.030;3.706;2022-09-29T10:52:32;28.80;60.00
56046;DHT22;41913;51.030;3.706;2022-09-29T10:54:58;26.90;62.30
56046;DHT22;41913;51.030;3.706;2022-09-29T10:57:25;25.60;64.10
56046;DHT22;41913;51.030;3.706;2022-09-29T10:59:52;24.80;66.20
56046;DHT22;41913;51.030;3.706;2022-09-29T11:04:50;24.20;67.80
56046;DHT22;41913;51.030;3.706;2022-09-29T11:07:16;24.10;68.70
56046;DHT22;41913;51.030;3.706;2022-09-29T11:09:42;23.50;69.10
56046;DHT22;41913;51.030;3.706;2022-09-29T11:12:26;23.00;70.10
56046;DHT22;41913;51.030;3.706;2022-09-29T11:14:52;22.50;71.30
56046;DHT22;41913;51.030;3.706;2022-09-29T11:17:25;21.60;73.00
56046;DHT22;41913;51.030;3.706;2022-09-29T11:19:51;21.30;73.30
56046;DHT22;41913;51.030;3.706;2022-09-29T11:22:27;21.40;73.50
56046;DHT22;41913;51.030;3.706;2022-09-29T11:25:01;21.50;72.20
56046;DHT22;41913;51.030;3.706;2022-09-29T11:27:57;21.40;72.40
56046;DHT22;41913;51.030;3.706;2022-09-29T11:30:31;21.10;72.90
56046;DHT22;41913;51.030;3.706;2022-09-29T11:38:16;20.30;78.60
56046;DHT22;41913;51.030;3.706;2022-09-29T11:50:44;19.00;79.40
56046;DHT22;41913;51.030;3.706;2022-09-29T11:55:57;18.80;80.40
56046;DHT22;41913;51.030;3.706;2022-09-29T11:58:27;18.60;81.50
56046;DHT22;41913;51.030;3.706;2022-09-29T12:01:42;18.60;82.40
56046;DHT22;41913;51.030;3.706;2022-09-29T12:03:43;18.60;83.10
56046;DHT22;41913;51.030;3.706;2022-09-29T12:06:27;18.50;84.00
56046;DHT22;41913;51.030;3.706;2022-09-29T12:16:36;18.40;83.90
56046;DHT22;41913;51.030;3.706;2022-09-29T12:21:49;18.60;84.50
56046;DHT22;41913;51.030;3.706;2022-09-29T12:29:57;19.10;84.70
56046;DHT22;41913;51.030;3.706;2022-09-29T12:32:25;19.30;83.60
56046;DHT22;41913;51.030;3.706;2022-09-29T12:35:05;19.40;83.10
56046;DHT22;41913;51.030;3.706;2022-09-29T12:37:46;19.60;82.60
56046;DHT22;41913;51.030;3.706;2022-09-29T12:40:34;19.50;81.80
56046;DHT22;41913;51.030;3.706;2022-09-29T12:43:12;19.70;81.40
56046;DHT22;41913;51.030;3.706;2022-09-29T12:53:13;19.40;82.30
56046;DHT22;41913;51.030;3.706;2022-09-29T12:55:46;19.30;83.00
56046;DHT22;41913;51.030;3.706;2022-09-29T12:58:19;19.20;84.10
56046;DHT22;41913;51.030;3.706;2022-09-29T13:00:48;19.20;84.70
56046;DHT22;41913;51.030;3.706;2022-09-29T13:03:22;19.60;85.00
56046;DHT22;41913;51.030;3.706;2022-09-29T13:13:35;19.60;85.50
56046;DHT22;41913;51.030;3.706;2022-09-29T13:18:52;19.40;85.60
56046;DHT22;41913;51.030;3.706;2022-09-29T13:21:22;19.50;85.50
56046;DHT22;41913;51.030;3.706;2022-09-29T13:24:07;19.40;85.80
56046;DHT22;41913;51.030;3.706;2022-09-29T13:26:39;19.40;86.90
56046;DHT22;41913;51.030;3.706;2022-09-29T13:29:14;19.60;86.60
56046;DHT22;41913;51.030;3.706;2022-09-29T13:31:42;19.80;85.80
56046;DHT22;41913;51.030;3.706;2022-09-29T13:34:15;20.00;85.60
56046;DHT22;41913;51.030;3.706;2022-09-29T13:36:43;20.00;85.00
56046;DHT22;41913;51.030;3.706;2022-09-29T13:39:20;20.10;84.10
56046;DHT22;41913;51.030;3.706;2022-09-29T13:41:46;20.20;83.80
56046;DHT22;41913;51.030;3.706;2022-09-29T13:46:41;20.40;80.80
56046;DHT22;41913;51.030;3.706;2022-09-29T13:51:46;20.50;81.70
56046;DHT22;41913;51.030;3.706;2022-09-29T13:57:07;20.00;82.30
56046;DHT22;41913;51.030;3.706;2022-09-29T14:02:26;19.40;86.10
56046;DHT22;41913;51.030;3.706;2022-09-29T14:04:54;19.20;87.90
56046;DHT22;41913;51.030;3.706;2022-09-29T14:10:17;18.50;91.20
56046;DHT22;41913;51.030;3.706;2022-09-29T14:12:45;18.40;91.70
56046;DHT22;41913;51.030;3.706;2022-09-29T14:15:15;18.30;91.40
56046;DHT22;41913;51.030;3.706;2022-09-29T14:17:45;18.20;91.80
56046;DHT22;41913;51.030;3.706;2022-09-29T14:20:16;18.10;92.10
56046;DHT22;41913;51.030;3.706;2022-09-29T14:27:42;17.90;93.40
56046;DHT22;41913;51.030;3.706;2022-09-29T14:30:58;18.10;93.40
56046;DHT22;41913;51.030;3.706;2022-09-29T14:35:38;18.10;94.40
56046;DHT22;41913;51.030;3.706;2022-09-29T14:38:14;18.10;94.20
56046;DHT22;41913;51.030;3.706;2022-09-29T14:43:34;18.00;94.50
56046;DHT22;41913;51.030;3.706;2022-09-29T14:46:04;17.70;94.90
56046;DHT22;41913;51.030;3.706;2022-09-29T14:51:35;17.30;95.30
56046;DHT22;41913;51.030;3.706;2022-09-29T15:04:35;16.70;96.90
56046;DHT22;41913;51.030;3.706;2022-09-29T15:07:02;16.70;97.70
56046;DHT22;41913;51.030;3.706;2022-09-29T15:09:33;16.90;98.10
56046;DHT22;41913;51.030;3.706;2022-09-29T15:11:59;17.40;98.60
56046;DHT22;41913;51.030;3.706;2022-09-29T15:14:30;18.20;98.20
56046;DHT22;41913;51.030;3.706;2022-09-29T15:17:06;19.10;96.20
56046;DHT22;41913;51.030;3.706;2022-09-29T15:19:35;19.80;93.80
56046;DHT22;41913;51.030;3.706;2022-09-29T15:22:13;20.00;92.00
56046;DHT22;41913;51.030;3.706;2022-09-29T15:27:28;19.30;92.30
56046;DHT22;41913;51.030;3.706;2022-09-29T15:29:58;19.00;92.60
56046;DHT22;41913;51.030;3.706;2022-09-29T15:32:27;18.70;93.30
56046;DHT22;41913;51.030;3.706;2022-09-29T15:34:58;18.40;94.20
56046;DHT22;41913;51.030;3.706;2022-09-29T15:37:25;18.70;94.80
56046;DHT22;41913;51.030;3.706;2022-09-29T15:39:51;19.40;94.00
56046;DHT22;41913;51.030;3.706;2022-09-29T15:42:18;20.10;93.20
56046;DHT22;41913;51.030;3.706;2022-09-29T15:44:49;20.40;91.90
56046;DHT22;41913;51.030;3.706;2022-09-29T15:47:20;20.30;91.20
56046;DHT22;41913;51.030;3.706;2022-09-29T15:49:50;19.90;91.60
56046;DHT22;41913;51.030;3.706;2022-09-29T15:52:17;19.60;92.30
56046;DHT22;41913;51.030;3.706;2022-09-29T15:54:57;19.30;93.00
56046;DHT22;41913;51.030;3.706;2022-09-29T16:02:45;18.80;92.80
56046;DHT22;41913;51.030;3.706;2022-09-29T16:05:13;18.70;93.40
56046;DHT22;41913;51.030;3.706;2022-09-29T16:07:40;18.60;93.90
56046;DHT22;41913;51.030;3.706;2022-09-29T16:10:14;18.70;94.30
56046;DHT22;41913;51.030;3.706;2022-09-29T16:15:32;19.10;94.00
56046;DHT22;41913;51.030;3.706;2022-09-29T16:17:58;19.10;93.00
56046;DHT22;41913;51.030;3.706;2022-09-29T16:20:26;19.20;93.10
56046;DHT22;41913;51.030;3.706;2022-09-29T16:22:54;19.10;92.90
56046;DHT22;41913;51.030;3.706;2022-09-29T16:25:27;19.10;93.20
56046;DHT22;41913;51.030;3.706;2022-09-29T16:27:55;18.90;93.60
56046;DHT22;41913;51.030;3.706;2022-09-29T16:30:23;18.60;93.90
56046;DHT22;41913;51.030;3.706;2022-09-29T16:33:00;18.40;94.60
56046;DHT22;41913;51.030;3.706;2022-09-29T16:38:08;18.00;94.70
56046;DHT22;41913;51.030;3.706;2022-09-29T16:40:38;17.90;95.00
56046;DHT22;41913;51.030;3.706;2022-09-29T16:43:04;17.80;95.10
56046;DHT22;41913;51.030;3.706;2022-09-29T16:45:30;17.50;95.70
56046;DHT22;41913;51.030;3.706;2022-09-29T16:47:56;17.60;95.90
56046;DHT22;41913;51.030;3.706;2022-09-29T16:50:23;17.60;96.00
56046;DHT22;41913;51.030;3.706;2022-09-29T16:52:50;17.60;96.10
56046;DHT22;41913;51.030;3.706;2022-09-29T16:57:52;17.50;96.60
56046;DHT22;41913;51.030;3.706;2022-09-29T17:00:19;17.40;96.80
56046;DHT22;41913;51.030;3.706;2022-09-29T17:02:44;17.30;97.10
56046;DHT22;41913;51.030;3.706;2022-09-29T17:05:11;17.10;97.40
56046;DHT22;41913;51.030;3.706;2022-09-29T17:07:40;17.00;97.80
56046;DHT22;41913;51.030;3.706;2022-09-29T17:10:06;16.80;97.90
56046;DHT22;41913;51.030;3.706;2022-09-29T17:12:38;16.50;98.60
56046;DHT22;41913;51.030;3.706;2022-09-29T17:15:05;16.30;98.90
56046;DHT22;41913;51.030;3.706;2022-09-29T17:17:31;16.10;99.20
56046;DHT22;41913;51.030;3.706;2022-09-29T17:19:57;15.90;99.30
56046;DHT22;41913;51.030;3.706;2022-09-29T17:24:49;15.70;99.50
56046;DHT22;41913;51.030;3.706;2022-09-29T17:27:14;15.50;99.50
56046;DHT22;41913;51.030;3.706;2022-09-29T17:29:58;15.40;99.70
56046;DHT22;41913;51.030;3.706;2022-09-29T17:32:24;15.30;99.80
56046;DHT22;41913;51.030;3.706;2022-09-29T17:34:51;15.20;99.90
56046;DHT22;41913;51.030;3.706;2022-09-29T17:37:16;15.00;99.90
56046;DHT22;41913;51.030;3.706;2022-09-29T17:39:42;15.00;99.90
56046;DHT22;41913;51.030;3.706;2022-09-29T17:42:08;15.00;99.90
56046;DHT22;41913;51.030;3.706;2022-09-29T17:44:35;14.90;99.90
56046;DHT22;41913;51.030;3.706;2022-09-29T17:47:08;14.80;99.90
56046;DHT22;41913;51.030;3.706;2022-09-29T17:49:35;14.80;99.90
56046;DHT22;41913;51.030;3.706;2022-09-29T17:52:05;14.80;99.90
56046;DHT22;41913;51.030;3.706;2022-09-29T17:54:32;14.80;99.90
56046;DHT22;41913;51.030;3.706;2022-09-29T17:56:59;14.80;99.90
56046;DHT22;41913;51.030;3.706;2022-09-29T17:59:25;14.70;99.90
56046;DHT22;41913;51.030;3.706;2022-09-29T18:01:50;14.60;99.90
56046;DHT22;41913;51.030;3.706;2022-09-29T18:04:16;14.50;99.90
56046;DHT22;41913;51.030;3.706;2022-09-29T18:06:41;14.30;99.90
56046;DHT22;41913;51.030;3.706;2022-09-29T18:09:13;14.20;99.90
56046;DHT22;41913;51.030;3.706;2022-09-29T18:11:39;14.20;99.90
56046;DHT22;41913;51.030;3.706;2022-09-29T18:14:04;14.20;99.90
56046;DHT22;41913;51.030;3.706;2022-09-29T18:16:30;14.20;99.90
56046;DHT22;41913;51.030;3.706;2022-09-29T18:18:55;14.20;99.90
56046;DHT22;41913;51.030;3.706;2022-09-29T18:21:22;14.10;99.90
56046;DHT22;41913;51.030;3.706;2022-09-29T18:23:48;14.10;99.90
56046;DHT22;41913;51.030;3.706;2022-09-29T18:26:14;14.00;99.90
56046;DHT22;41913;51.030;3.706;2022-09-29T18:28:41;13.90;99.90
56046;DHT22;41913;51.030;3.706;2022-09-29T18:33:48;13.70;99.90
56046;DHT22;41913;51.030;3.706;2022-09-29T18:36:13;13.70;99.90
56046;DHT22;41913;51.030;3.706;2022-09-29T18:38:40;13.70;99.90
56046;DHT22;41913;51.030;3.706;2022-09-29T18:41:08;13.60;99.90
56046;DHT22;41913;51.030;3.706;2022-09-29T18:43:35;13.50;99.90
56046;DHT22;41913;51.030;3.706;2022-09-29T18:46:00;13.50;99.90
56046;DHT22;41913;51.030;3.706;2022-09-29T18:48:29;13.40;99.90
56046;DHT22;41913;51.030;3.706;2022-09-29T18:50:55;13.40;99.90
56046;DHT22;41913;51.030;3.706;2022-09-29T18:53:21;13.30;99.90
56046;DHT22;41913;51.030;3.706;2022-09-29T18:55:49;13.30;99.90
56046;DHT22;41913;51.030;3.706;2022-09-29T19:00:55;13.20;99.90
56046;DHT22;41913;51.030;3.706;2022-09-29T19:03:21;13.20;99.90
56046;DHT22;41913;51.030;3.706;2022-09-29T19:05:52;13.10;99.90
56046;DHT22;41913;51.030;3.706;2022-09-29T19:08:18;13.00;99.90
56046;DHT22;41913;51.030;3.706;2022-09-29T19:10:54;13.00;99.90
56046;DHT22;41913;51.030;3.706;2022-09-29T19:13:21;12.90;99.90
56046;DHT22;41913;51.030;3.706;2022-09-29T19:15:48;12.90;99.90
56046;DHT22;41913;51.030;3.706;2022-09-29T19:18:23;12.80;99.90
56046;DHT22;41913;51.030;3.706;2022-09-29T19:20:50;12.80;99.90
56046;DHT22;41913;51.030;3.706;2022-09-29T19:23:18;12.80;99.90
56046;DHT22;41913;51.030;3.706;2022-09-29T19:25:45;12.70;99.90